createdAt,value
2023-01-30T00:01:02.253Z,55.23
2023-01-30T00:03:29.184Z,55.42
2023-01-30T00:05:56.110Z,55.59
2023-01-30T00:08:23.321Z,55.00
2023-01-30T00:10:50.329Z,55.44
2023-01-30T00:13:17.256Z,55.56
2023-01-30T00:15:44.528Z,55.67
2023-01-30T00:18:11.556Z,55.38
2023-01-30T00:20:38.476Z,56.09
2023-01-30T00:23:06.310Z,55.39
2023-01-30T00:25:33.318Z,54.99
2023-01-30T00:28:01.676Z,54.93
2023-01-30T00:30:30.164Z,54.58
2023-01-30T00:32:59.979Z,55.11
2023-01-30T00:35:27.200Z,55.57
2023-01-30T00:38:00.934Z,55.91
2023-01-30T00:40:29.799Z,55.43
2023-01-30T00:42:56.695Z,55.39
2023-01-30T00:45:23.588Z,54.90
2023-01-30T00:47:50.831Z,55.09
2023-01-30T00:50:17.910Z,54.25
2023-01-30T00:52:44.838Z,54.63
2023-01-30T00:55:12.147Z,54.79
2023-01-30T00:57:39.010Z,54.62
2023-01-30T01:00:06.739Z,55.02
2023-01-30T01:02:33.753Z,54.42
2023-01-30T01:05:01.348Z,54.95
2023-01-30T01:07:28.308Z,54.52
2023-01-30T01:09:55.453Z,53.93
2023-01-30T01:12:22.339Z,54.52
2023-01-30T01:14:49.316Z,54.65
2023-01-30T01:17:16.493Z,54.64
2023-01-30T01:19:43.547Z,54.74
2023-01-30T01:22:10.470Z,54.63
2023-01-30T01:24:37.456Z,53.77
2023-01-30T01:27:04.349Z,54.23
2023-01-30T01:29:32.369Z,53.92
2023-01-30T01:31:59.271Z,53.52
2023-01-30T01:34:26.266Z,54.44
2023-01-30T01:36:54.205Z,53.20
2023-01-30T01:39:21.995Z,53.02
2023-01-30T01:41:50.352Z,53.81
2023-01-30T01:44:17.541Z,53.43
2023-01-30T01:46:58.672Z,54.10
2023-01-30T01:49:36.340Z,53.82
2023-01-30T01:52:11.717Z,53.19
2023-01-30T01:54:54.500Z,53.32
2023-01-30T01:57:30.523Z,53.47
2023-01-30T02:00:22.192Z,53.51
2023-01-30T02:02:55.015Z,53.62
2023-01-30T02:05:23.709Z,53.50
2023-01-30T02:08:02.488Z,53.55
2023-01-30T02:11:07.973Z,53.77
2023-01-30T02:13:38.172Z,52.90
2023-01-30T02:16:07.683Z,52.81
2023-01-30T02:18:37.235Z,53.72
2023-01-30T02:21:37.227Z,54.26
2023-01-30T02:24:36.701Z,53.61
2023-01-30T02:27:17.768Z,53.84
2023-01-30T02:29:56.775Z,53.59
2023-01-30T02:32:32.341Z,54.04
2023-01-30T02:35:05.098Z,54.27
2023-01-30T02:37:44.178Z,53.65
2023-01-30T02:40:33.308Z,54.16
2023-01-30T02:43:18.503Z,53.93
2023-01-30T02:45:54.372Z,54.70
2023-01-30T02:48:30.949Z,54.55
2023-01-30T02:51:04.698Z,54.78
2023-01-30T02:53:33.312Z,54.99
2023-01-30T02:56:00.856Z,54.31
2023-01-30T02:58:34.100Z,55.11
2023-01-30T03:01:32.194Z,55.24
2023-01-30T03:04:11.501Z,55.11
2023-01-30T03:07:01.157Z,55.15
2023-01-30T03:09:35.116Z,54.97
2023-01-30T03:12:11.441Z,55.17
2023-01-30T03:15:01.712Z,55.54
2023-01-30T03:17:32.490Z,54.94
2023-01-30T03:20:01.050Z,54.95
2023-01-30T03:22:37.065Z,55.34
2023-01-30T03:25:05.324Z,55.20
2023-01-30T03:27:35.652Z,55.13
2023-01-30T03:30:02.718Z,54.54
2023-01-30T03:32:29.719Z,54.88
2023-01-30T03:34:56.941Z,55.18
2023-01-30T03:37:23.911Z,55.10
2023-01-30T03:39:50.895Z,55.28
2023-01-30T03:42:18.010Z,55.59
2023-01-30T03:44:45.034Z,55.34
2023-01-30T03:47:11.998Z,55.10
2023-01-30T03:49:39.139Z,54.88
2023-01-30T03:52:06.010Z,55.64
2023-01-30T03:54:32.932Z,56.51
2023-01-30T03:56:59.788Z,56.09
2023-01-30T03:59:26.800Z,56.07
2023-01-30T04:02:02.064Z,55.77
2023-01-30T04:04:29.190Z,55.16
2023-01-30T04:06:57.118Z,55.55
2023-01-30T04:09:24.638Z,55.88
2023-01-30T04:11:52.752Z,55.31
2023-01-30T04:14:19.994Z,56.43
2023-01-30T04:17:25.311Z,56.80
2023-01-30T04:20:12.322Z,56.39
2023-01-30T04:22:44.954Z,56.70
2023-01-30T04:25:12.144Z,56.21
2023-01-30T04:27:39.009Z,56.11
2023-01-30T04:30:18.287Z,56.00
2023-01-30T04:32:47.523Z,56.41
2023-01-30T04:35:15.596Z,56.02
2023-01-30T04:37:42.846Z,56.01
2023-01-30T04:40:13.333Z,55.34
2023-01-30T04:42:40.799Z,56.30
2023-01-30T04:45:26.227Z,55.78
2023-01-30T04:47:53.424Z,55.92
2023-01-30T04:50:20.489Z,55.76
2023-01-30T04:52:47.434Z,56.01
2023-01-30T04:55:14.441Z,56.41
2023-01-30T04:57:41.451Z,56.72
2023-01-30T05:00:09.983Z,56.74
2023-01-30T05:02:41.042Z,56.09
2023-01-30T05:05:08.345Z,56.54
2023-01-30T05:07:35.195Z,55.66
2023-01-30T05:10:02.234Z,55.94
2023-01-30T05:12:31.698Z,56.81
2023-01-30T05:14:58.736Z,56.59
2023-01-30T05:17:25.816Z,56.51
2023-01-30T05:19:52.708Z,56.58
2023-01-30T05:22:19.632Z,57.11
2023-01-30T05:24:46.647Z,57.15
2023-01-30T05:27:13.533Z,57.06
2023-01-30T05:29:40.423Z,56.70
2023-01-30T05:32:07.667Z,56.63
2023-01-30T05:34:34.658Z,56.89
2023-01-30T05:37:01.499Z,57.71
2023-01-30T05:39:28.479Z,57.33
2023-01-30T05:41:55.291Z,57.11
2023-01-30T05:44:22.382Z,57.12
2023-01-30T05:46:49.654Z,57.03
2023-01-30T05:49:16.742Z,57.30
2023-01-30T05:51:43.586Z,57.54
2023-01-30T05:54:10.654Z,56.37
2023-01-30T05:56:37.564Z,56.82
2023-01-30T05:59:04.536Z,57.15
2023-01-30T06:01:31.790Z,55.98
2023-01-30T06:03:59.211Z,55.85
2023-01-30T06:06:26.284Z,56.13
2023-01-30T06:08:54.537Z,56.63
2023-01-30T06:11:22.934Z,55.75
2023-01-30T06:13:50.095Z,55.38
2023-01-30T06:16:18.336Z,55.49
2023-01-30T06:18:45.841Z,55.42
2023-01-30T06:21:14.029Z,54.83
2023-01-30T06:23:41.887Z,53.95
2023-01-30T06:26:09.618Z,54.27
2023-01-30T06:28:36.732Z,54.34
2023-01-30T06:31:06.600Z,54.42
2023-01-30T06:33:33.678Z,54.90
2023-01-30T06:36:00.576Z,56.02
2023-01-30T06:38:27.492Z,54.82
2023-01-30T06:40:54.339Z,55.14
2023-01-30T06:43:21.727Z,55.09
2023-01-30T06:45:48.701Z,54.60
2023-01-30T06:48:15.645Z,54.51
2023-01-30T06:50:42.613Z,54.84
2023-01-30T06:53:11.080Z,54.66
2023-01-30T06:55:37.955Z,54.18
2023-01-30T06:58:06.165Z,53.47
2023-01-30T07:00:34.515Z,53.96
2023-01-30T07:03:01.794Z,53.23
2023-01-30T07:05:29.015Z,52.63
2023-01-30T07:07:55.981Z,52.73
2023-01-30T07:10:23.511Z,52.13
2023-01-30T07:12:50.521Z,51.32
2023-01-30T07:15:17.770Z,50.97
2023-01-30T07:17:44.874Z,50.60
2023-01-30T07:20:12.101Z,49.86
2023-01-30T07:22:39.107Z,50.20
2023-01-30T07:25:06.661Z,49.39
2023-01-30T07:27:34.156Z,49.83
2023-01-30T07:30:01.025Z,50.12
2023-01-30T07:32:28.089Z,50.32
2023-01-30T07:34:55.008Z,49.92
2023-01-30T07:37:21.946Z,49.79
2023-01-30T07:39:48.813Z,50.43
2023-01-30T07:42:15.904Z,49.77
2023-01-30T07:44:42.866Z,50.23
2023-01-30T07:47:09.986Z,50.14
2023-01-30T07:49:36.979Z,51.04
2023-01-30T07:52:04.206Z,51.12
2023-01-30T07:54:31.082Z,49.94
2023-01-30T07:56:58.136Z,50.56
2023-01-30T07:59:25.034Z,50.60
2023-01-30T08:01:52.027Z,50.61
2023-01-30T08:04:19.096Z,50.62
2023-01-30T08:06:46.223Z,50.79
2023-01-30T08:09:13.125Z,50.84
2023-01-30T08:11:40.188Z,51.91
2023-01-30T08:14:07.040Z,51.71
2023-01-30T08:16:34.066Z,51.11
2023-01-30T08:19:01.037Z,50.77
2023-01-30T08:21:27.969Z,49.94
2023-01-30T08:23:54.800Z,50.50
2023-01-30T08:26:21.705Z,50.69
2023-01-30T08:28:49.111Z,50.62
2023-01-30T08:31:17.629Z,50.47
2023-01-30T08:33:44.981Z,50.29
2023-01-30T08:36:11.900Z,50.25
2023-01-30T08:38:38.747Z,49.28
2023-01-30T08:41:07.286Z,49.12
2023-01-30T08:43:35.257Z,48.57
2023-01-30T08:46:02.597Z,48.77
2023-01-30T08:48:36.721Z,48.80
2023-01-30T08:51:07.354Z,48.84
2023-01-30T08:53:34.440Z,48.48
2023-01-30T08:56:01.383Z,48.92
2023-01-30T08:58:28.303Z,47.88
2023-01-30T09:00:55.532Z,48.97
2023-01-30T09:03:22.367Z,48.68
2023-01-30T09:05:55.809Z,48.33
2023-01-30T09:08:22.953Z,48.45
2023-01-30T09:10:49.819Z,48.87
2023-01-30T09:13:16.815Z,48.50
2023-01-30T09:15:44.799Z,48.47
2023-01-30T09:18:11.883Z,48.42
2023-01-30T09:20:38.883Z,48.11
2023-01-30T09:23:05.820Z,47.32
2023-01-30T09:25:32.627Z,48.23
2023-01-30T09:27:59.685Z,47.82
2023-01-30T09:30:26.783Z,48.42
2023-01-30T09:32:53.960Z,48.55
2023-01-30T09:35:20.912Z,48.47
2023-01-30T09:37:49.771Z,48.21
2023-01-30T09:40:28.538Z,47.87
2023-01-30T09:43:20.471Z,47.99
2023-01-30T09:45:53.407Z,48.59
2023-01-30T09:48:32.406Z,48.83
2023-01-30T09:51:21.108Z,48.98
2023-01-30T09:54:13.025Z,48.03
2023-01-30T09:56:40.368Z,47.69
2023-01-30T09:59:16.070Z,47.58
2023-01-30T10:02:24.579Z,48.41
2023-01-30T10:05:00.932Z,47.61
2023-01-30T10:07:57.194Z,49.11
2023-01-30T10:10:48.322Z,48.70
2023-01-30T10:13:41.206Z,48.48
2023-01-30T10:16:24.083Z,49.61
2023-01-30T10:19:09.087Z,48.07
2023-01-30T10:21:44.646Z,47.77
2023-01-30T10:24:49.826Z,47.61
2023-01-30T10:27:18.514Z,47.56
2023-01-30T10:29:52.032Z,48.89
2023-01-30T10:32:26.682Z,47.93
2023-01-30T10:34:58.141Z,48.05
2023-01-30T10:37:31.284Z,48.30
2023-01-30T10:40:21.820Z,48.12
2023-01-30T10:43:10.104Z,48.60
2023-01-30T10:46:07.026Z,48.29
2023-01-30T10:48:57.175Z,48.44
2023-01-30T10:51:57.936Z,49.44
2023-01-30T10:54:40.500Z,48.72
2023-01-30T10:57:26.277Z,48.94
2023-01-30T10:59:59.002Z,49.00
2023-01-30T11:02:56.916Z,48.75
2023-01-30T11:05:47.031Z,48.95
2023-01-30T11:08:19.162Z,48.65
2023-01-30T11:10:46.185Z,47.73
2023-01-30T11:13:20.787Z,47.21
2023-01-30T11:15:53.910Z,48.15
2023-01-30T11:21:19.972Z,49.06
2023-01-30T11:23:46.984Z,48.22
2023-01-30T11:26:46.850Z,48.73
2023-01-30T11:29:33.186Z,48.58
2023-01-30T11:32:05.724Z,48.26
2023-01-30T11:34:33.149Z,48.63
2023-01-30T11:37:30.612Z,49.25
2023-01-30T11:39:57.617Z,49.09
2023-01-30T11:42:32.219Z,49.51
2023-01-30T11:45:16.222Z,49.02
2023-01-30T11:48:05.414Z,49.09
2023-01-30T11:50:44.805Z,48.97
2023-01-30T11:53:25.604Z,49.42
2023-01-30T11:56:08.536Z,50.10
2023-01-30T11:58:39.658Z,49.92
2023-01-30T12:01:10.006Z,49.84
2023-01-30T12:03:53.520Z,51.90
2023-01-30T12:06:33.020Z,50.26
2023-01-30T12:09:00.199Z,50.10
2023-01-30T12:11:38.428Z,51.35
2023-01-30T12:14:44.912Z,51.57
2023-01-30T12:17:31.508Z,51.52
2023-01-30T12:20:01.300Z,51.16
2023-01-30T12:22:41.963Z,51.44
2023-01-30T12:25:26.781Z,52.96
2023-01-30T12:28:01.867Z,52.83
2023-01-30T12:30:36.440Z,53.69
2023-01-30T12:33:06.226Z,53.41
2023-01-30T12:36:06.721Z,52.96
2023-01-30T12:38:56.168Z,53.35
2023-01-30T12:41:42.853Z,53.71
2023-01-30T12:44:25.727Z,54.43
2023-01-30T12:47:30.444Z,53.33
2023-01-30T12:50:06.268Z,52.95
2023-01-30T12:52:56.808Z,53.96
2023-01-30T12:56:02.795Z,53.53
2023-01-30T12:58:57.627Z,52.82
2023-01-30T13:01:48.127Z,53.24
2023-01-30T13:04:35.787Z,53.67
2023-01-30T13:07:13.539Z,53.57
2023-01-30T13:10:12.209Z,53.92
2023-01-30T13:13:07.949Z,53.77
2023-01-30T13:15:49.035Z,53.92
2023-01-30T13:18:24.248Z,54.03
2023-01-30T13:21:16.525Z,54.36
2023-01-30T13:23:49.279Z,54.29
2023-01-30T13:26:31.164Z,54.22
2023-01-30T13:29:24.322Z,54.02
2023-01-30T13:31:55.301Z,54.09
2023-01-30T13:34:55.556Z,54.64
2023-01-30T13:37:22.630Z,54.42
2023-01-30T13:40:13.747Z,54.62
2023-01-30T13:42:47.968Z,54.82
2023-01-30T13:45:22.184Z,54.60
2023-01-30T13:47:57.946Z,54.77
2023-01-30T13:50:41.782Z,55.96
2023-01-30T13:53:11.506Z,55.22
2023-01-30T13:55:50.566Z,55.11
2023-01-30T13:58:37.354Z,55.11
2023-01-30T14:01:04.444Z,54.83
2023-01-30T14:03:33.130Z,54.89
2023-01-30T14:06:21.919Z,55.56
2023-01-30T14:08:54.737Z,55.31
2023-01-30T14:11:38.052Z,55.26
2023-01-30T14:14:29.151Z,55.62
2023-01-30T14:17:14.350Z,55.57
2023-01-30T14:19:46.136Z,55.88
2023-01-30T14:22:45.298Z,55.92
2023-01-30T14:25:30.569Z,56.37
2023-01-30T14:28:00.384Z,55.48
2023-01-30T14:30:39.207Z,55.72
2023-01-30T14:33:29.504Z,56.10
2023-01-30T14:36:02.581Z,56.13
2023-01-30T14:38:36.869Z,56.16
2023-01-30T14:41:03.774Z,56.49
2023-01-30T14:43:42.597Z,56.97
2023-01-30T14:46:19.009Z,56.54
2023-01-30T14:48:53.283Z,57.26
2023-01-30T14:51:48.996Z,57.25
2023-01-30T14:54:16.106Z,57.39
2023-01-30T14:57:03.591Z,56.90
2023-01-30T14:59:45.815Z,57.20
2023-01-30T15:02:12.754Z,57.18
2023-01-30T15:04:47.083Z,57.52
2023-01-30T15:07:14.072Z,57.56
2023-01-30T15:09:45.746Z,57.09
2023-01-30T15:12:21.374Z,57.89
2023-01-30T15:15:04.125Z,57.75
2023-01-30T15:17:40.396Z,57.87
2023-01-30T15:20:13.652Z,58.29
2023-01-30T15:22:52.946Z,58.02
2023-01-30T15:25:49.070Z,57.72
2023-01-30T15:28:41.836Z,57.10
2023-01-30T15:31:18.362Z,58.11
2023-01-30T15:33:53.864Z,58.15
2023-01-30T15:36:30.840Z,57.58
2023-01-30T15:39:04.301Z,57.36
2023-01-30T15:41:41.809Z,57.79
2023-01-30T15:44:34.847Z,57.87
2023-01-30T15:47:14.059Z,58.08
2023-01-30T15:50:04.847Z,58.03
2023-01-30T15:52:39.354Z,57.83
2023-01-30T15:55:08.022Z,57.76
2023-01-30T15:57:38.839Z,58.97
2023-01-30T16:00:08.377Z,59.09
2023-01-30T16:02:43.283Z,58.88
2023-01-30T16:05:24.847Z,59.15
2023-01-30T16:07:54.470Z,59.05
2023-01-30T16:10:26.059Z,58.59
2023-01-30T16:12:56.163Z,58.75
2023-01-30T16:15:36.256Z,58.01
2023-01-30T16:18:06.219Z,58.61
2023-01-30T16:21:03.215Z,59.04
2023-01-30T16:23:43.671Z,59.41
2023-01-30T16:26:16.201Z,59.59
2023-01-30T16:28:43.693Z,59.09
2023-01-30T16:31:11.768Z,59.00
2023-01-30T16:33:39.312Z,58.57
2023-01-30T16:36:26.486Z,58.89
2023-01-30T16:38:55.187Z,58.68
2023-01-30T16:41:34.413Z,58.69
2023-01-30T16:44:34.007Z,59.75
2023-01-30T16:47:22.943Z,59.20
2023-01-30T16:49:50.423Z,58.77
2023-01-30T16:52:34.589Z,59.41
2023-01-30T16:55:05.692Z,59.95
2023-01-30T16:57:37.174Z,59.35
2023-01-30T17:00:07.428Z,58.47
2023-01-30T17:02:37.368Z,59.20
2023-01-30T17:05:19.571Z,58.71
2023-01-30T17:07:47.745Z,58.62
2023-01-30T17:10:39.500Z,59.01
2023-01-30T17:13:34.519Z,59.09
2023-01-30T17:16:25.317Z,59.17
2023-01-30T17:18:54.764Z,58.53
2023-01-30T17:21:24.376Z,58.89
2023-01-30T17:23:56.492Z,58.86
2023-01-30T17:26:23.802Z,58.53
2023-01-30T17:28:50.700Z,58.60
2023-01-30T17:31:18.103Z,58.51
2023-01-30T17:33:44.999Z,58.33
2023-01-30T17:36:41.514Z,58.89
2023-01-30T17:39:12.260Z,59.92
2023-01-30T17:41:39.839Z,58.95
2023-01-30T17:44:06.863Z,59.17
2023-01-30T17:46:46.965Z,59.12
2023-01-30T17:49:24.545Z,59.20
2023-01-30T17:51:52.781Z,60.33
2023-01-30T17:54:20.156Z,60.01
2023-01-30T17:56:51.721Z,59.30
2023-01-30T17:59:20.596Z,59.13
2023-01-30T18:01:50.375Z,59.41
2023-01-30T18:04:19.030Z,59.14
2023-01-30T18:06:49.412Z,59.39
2023-01-30T18:09:20.376Z,59.27
2023-01-30T18:11:48.617Z,59.28
2023-01-30T18:14:16.597Z,59.42
2023-01-30T18:16:44.331Z,58.85
2023-01-30T18:19:17.267Z,59.83
2023-01-30T18:21:44.252Z,59.22
2023-01-30T18:24:14.769Z,59.67
2023-01-30T18:26:42.693Z,59.04
2023-01-30T18:29:10.667Z,58.89
2023-01-30T18:31:41.750Z,59.48
2023-01-30T18:34:11.344Z,58.74
2023-01-30T18:36:38.832Z,58.56
2023-01-30T18:39:06.177Z,58.73
2023-01-30T18:41:33.208Z,59.19
2023-01-30T18:44:04.812Z,59.13
2023-01-30T18:46:33.973Z,58.93
2023-01-30T18:49:01.059Z,59.58
2023-01-30T18:51:32.005Z,58.91
2023-01-30T18:54:01.419Z,58.70
2023-01-30T18:56:30.875Z,59.12
2023-01-30T18:58:59.329Z,59.21
2023-01-30T19:01:28.043Z,58.59
2023-01-30T19:04:02.040Z,59.13
2023-01-30T19:06:29.527Z,58.54
2023-01-30T19:08:57.666Z,59.86
2023-01-30T19:11:25.173Z,59.86
2023-01-30T19:13:53.281Z,59.28
2023-01-30T19:16:21.705Z,59.63
2023-01-30T19:18:48.958Z,59.65
2023-01-30T19:21:17.232Z,59.97
2023-01-30T19:23:44.196Z,60.14
2023-01-30T19:26:11.429Z,60.08
2023-01-30T19:28:39.169Z,59.56
2023-01-30T19:31:07.837Z,59.81
2023-01-30T19:33:35.193Z,59.87
2023-01-30T19:36:13.367Z,59.49
2023-01-30T19:38:41.381Z,59.34
2023-01-30T19:41:28.565Z,59.82
2023-01-30T19:43:57.413Z,60.08
2023-01-30T19:46:24.939Z,59.77
2023-01-30T19:48:51.980Z,60.01
2023-01-30T19:51:27.507Z,59.73
2023-01-30T19:53:57.427Z,60.03
2023-01-30T19:56:25.948Z,60.43
2023-01-30T19:58:54.745Z,60.47
2023-01-30T20:01:24.399Z,60.41
2023-01-30T20:03:51.486Z,59.85
2023-01-30T20:06:21.092Z,59.54
2023-01-30T20:08:50.066Z,60.42
2023-01-30T20:11:19.152Z,60.66
2023-01-30T20:13:46.720Z,60.25
2023-01-30T20:16:16.138Z,60.55
2023-01-30T20:18:43.079Z,60.57
2023-01-30T20:21:12.253Z,60.64
2023-01-30T20:23:40.461Z,61.33
2023-01-30T20:26:10.421Z,60.26
2023-01-30T20:28:37.505Z,60.35
2023-01-30T20:31:17.144Z,61.07
2023-01-30T20:33:44.299Z,60.79
2023-01-30T20:36:14.620Z,61.09
2023-01-30T20:38:43.239Z,61.14
2023-01-30T20:41:22.052Z,60.84
2023-01-30T20:43:52.153Z,59.63
2023-01-30T20:46:21.857Z,60.73
2023-01-30T20:48:50.568Z,60.32
2023-01-30T20:51:21.095Z,60.09
2023-01-30T20:53:50.834Z,60.56
2023-01-30T20:56:18.969Z,60.77
2023-01-30T20:58:46.462Z,60.66
2023-01-30T21:01:19.625Z,61.34
2023-01-30T21:03:48.188Z,60.21
2023-01-30T21:06:42.642Z,60.17
2023-01-30T21:09:03.349Z,60.36
2023-01-30T21:11:30.254Z,60.13
2023-01-30T21:13:57.348Z,60.87
2023-01-30T21:16:27.728Z,60.07
2023-01-30T21:18:58.276Z,59.83
2023-01-30T21:21:39.205Z,60.05
2023-01-30T21:24:13.216Z,60.38
2023-01-30T21:26:43.649Z,60.54
2023-01-30T21:29:11.009Z,60.54
2023-01-30T21:31:39.647Z,60.74
2023-01-30T21:34:07.210Z,60.79
2023-01-30T21:36:34.184Z,60.49
2023-01-30T21:39:01.108Z,60.29
2023-01-30T21:41:34.711Z,61.00
2023-01-30T21:44:01.872Z,61.20
2023-01-30T21:46:31.980Z,61.00
2023-01-30T21:48:59.313Z,60.98
2023-01-30T21:51:26.142Z,61.16
2023-01-30T21:53:54.409Z,61.68
2023-01-30T21:56:23.093Z,60.78
2023-01-30T21:58:50.463Z,61.07
2023-01-30T22:01:18.224Z,61.51
2023-01-30T22:03:45.199Z,61.22
2023-01-30T22:06:12.295Z,60.45
2023-01-30T22:08:40.025Z,61.14
2023-01-30T22:11:12.988Z,61.53
2023-01-30T22:13:42.093Z,61.62
2023-01-30T22:16:12.282Z,61.55
2023-01-30T22:18:40.687Z,61.91
2023-01-30T22:21:08.812Z,61.82
2023-01-30T22:23:38.576Z,61.22
2023-01-30T22:26:06.187Z,61.88
2023-01-30T22:28:33.465Z,61.60
2023-01-30T22:31:08.397Z,62.19
2023-01-30T22:33:36.554Z,62.13
2023-01-30T22:36:06.359Z,61.41
2023-01-30T22:38:34.237Z,61.20
2023-01-30T22:41:08.870Z,61.79
2023-01-30T22:43:36.208Z,61.70
2023-01-30T22:46:06.238Z,62.35
2023-01-30T22:48:34.499Z,61.93
2023-01-30T22:51:16.550Z,61.64
2023-01-30T22:54:10.862Z,61.38
2023-01-30T22:56:40.681Z,61.96
2023-01-30T22:59:08.859Z,62.32
2023-01-30T23:01:38.408Z,62.42
2023-01-30T23:04:13.212Z,62.14
2023-01-30T23:06:41.165Z,61.13
2023-01-30T23:09:10.477Z,61.34
2023-01-30T23:11:43.723Z,62.11
2023-01-30T23:14:12.646Z,61.62
2023-01-30T23:16:42.090Z,61.69
2023-01-30T23:19:10.942Z,61.07
2023-01-30T23:21:43.004Z,61.69
2023-01-30T23:24:21.025Z,61.34
2023-01-30T23:26:50.399Z,60.67
2023-01-30T23:29:19.840Z,60.55
2023-01-30T23:31:47.670Z,60.66
2023-01-30T23:34:17.344Z,60.92
2023-01-30T23:36:45.352Z,60.64
2023-01-30T23:39:13.667Z,61.34
2023-01-30T23:41:41.981Z,60.89
2023-01-30T23:44:09.783Z,61.42
2023-01-30T23:46:41.757Z,60.41
2023-01-30T23:49:11.961Z,59.56
2023-01-30T23:51:40.740Z,59.82
2023-01-30T23:54:08.476Z,60.58
2023-01-30T23:56:38.785Z,60.82
2023-01-30T23:59:06.325Z,60.41
